Terminal Aerodrome Forecast
Issued by NWS

Current Version | Previous Version | Graphics & Text | Print | Product List | Glossary On
Versions: 1 2 3 4 5 6 7 8 9 10 11 12 13 14 15 16 17 18 19 20
467
FTUS41 KILN 291132
TAFLUK
TAF
KLUK 291132Z 2912/3012 00000KT P6SM VCSH SCT090 BKN200
     FM291300 21003KT P6SM FEW040 SCT080
     FM291800 21006KT P6SM VCTS SCT040CB BKN250
     FM292000 21008KT P6SM SCT040 BKN250
     FM292300 22004KT P6SM VCTS BKN050CB
     FM300200 00000KT P6SM SCT050
     FM300900 00000KT 3SM BR FEW040=

USA.gov is the U.S. government's official web portal to all federal, state and local government web resources and services.